Time;durP1;ratioP1;P1;durP2;ratioP2;P2;SDS_P1;SDS_P2;PMS_P1;PMS_P2;Temp;Humidity;BMP_temperature;BMP_pressure;BME280_temperature;BME280_humidity;BME280_pressure;Samples;Min_cycle;Max_cycle;Signal;HPM_P1;HPM_P2
2021/12/10 00:01:31;;;;;;;;;;;-0.40;99.90;;;;;;5053078;28;19912;-77
2021/12/10 00:03:57;;;;;;;;;;;-0.50;99.90;;;;;;5052521;28;19916;-77
2021/12/10 00:06:32;;;;;;;;;;;-0.50;99.90;;;;;;5047893;28;20329;-75
2021/12/10 00:09:00;;;;;;;;;;;-0.50;99.90;;;;;;5052244;28;19916;-77
2021/12/10 00:11:33;;;;;;;;;;;-0.50;99.90;;;;;;5052581;28;19919;-77
2021/12/10 00:13:59;;;;;;;;;;;-0.30;99.90;;;;;;5052153;28;19934;-77
2021/12/10 00:16:24;;;;;;;;;;;-0.50;99.90;;;;;;5052643;28;19995;-77
2021/12/10 00:18:55;;;;;;;;;;;-0.40;99.90;;;;;;5051298;28;19909;-77
2021/12/10 00:21:25;;;;;;;;;;;-0.50;99.90;;;;;;5052604;28;20365;-77
2021/12/10 00:23:51;;;;;;;;;;;-0.50;99.90;;;;;;5052338;28;19943;-77
2021/12/10 00:26:23;;;;;;;;;;;-0.50;99.90;;;;;;5052419;28;20346;-77
2021/12/10 00:28:50;;;;;;;;;;;-0.70;99.90;;;;;;5052573;28;20289;-77
2021/12/10 00:31:31;;;;;;;;;;;-0.80;99.90;;;;;;5052379;28;19913;-76
2021/12/10 00:34:00;;;;;;;;;;;-0.80;99.90;;;;;;5052174;28;19916;-77
2021/12/10 00:36:26;;;;;;;;;;;-0.80;99.90;;;;;;5052251;28;19913;-76
2021/12/10 00:38:52;;;;;;;;;;;-0.80;99.90;;;;;;5050231;28;20004;-77
2021/12/10 00:41:18;;;;;;;;;;;-0.90;99.90;;;;;;5050573;28;20020;-76
2021/12/10 00:43:44;;;;;;;;;;;-1.10;99.90;;;;;;5051638;28;20381;-77
2021/12/10 00:46:10;;;;;;;;;;;-1.20;99.90;;;;;;5050726;28;19912;-77
2021/12/10 00:48:36;;;;;;;;;;;-1.30;99.90;;;;;;5050800;28;20293;-77
2021/12/10 00:51:02;;;;;;;;;;;-1.40;99.90;;;;;;5051871;28;19909;-77
2021/12/10 00:53:28;;;;;;;;;;;-1.50;99.90;;;;;;5051750;28;19908;-77
2021/12/10 00:55:53;;;;;;;;;;;-1.40;99.90;;;;;;5045567;28;19909;-77
2021/12/10 00:58:19;;;;;;;;;;;-1.30;99.90;;;;;;5051851;28;20289;-77
2021/12/10 01:00:51;;;;;;;;;;;-1.40;99.90;;;;;;5051764;28;20374;-76
2021/12/10 01:03:19;;;;;;;;;;;-1.20;99.90;;;;;;5051725;28;19909;-77
2021/12/10 01:05:46;;;;;;;;;;;-1.10;99.90;;;;;;5045633;28;20332;-76
2021/12/10 01:08:12;;;;;;;;;;;-0.90;99.90;;;;;;5051280;28;19948;-77
2021/12/10 01:10:40;;;;;;;;;;;-1.10;99.90;;;;;;5045706;28;19956;-77
2021/12/10 01:13:09;;;;;;;;;;;-1.00;99.90;;;;;;5044465;28;19909;-77
2021/12/10 01:15:56;;;;;;;;;;;-1.10;99.90;;;;;;5051839;28;19909;-76
2021/12/10 01:23:59;;;;;;;;;;;-1.40;99.90;;;;;;5051186;28;20419;-77
2021/12/10 01:29:12;;;;;;;;;;;-1.70;99.90;;;;;;5051481;28;19913;-77
2021/12/10 01:31:38;;;;;;;;;;;-1.60;99.90;;;;;;5051319;28;19944;-77
2021/12/10 01:34:05;;;;;;;;;;;-1.50;99.90;;;;;;5050805;28;19944;-77
2021/12/10 01:36:31;;;;;;;;;;;-1.50;99.90;;;;;;5051283;28;19909;-77
2021/12/10 01:38:56;;;;;;;;;;;-1.70;99.90;;;;;;5051296;28;19915;-77
2021/12/10 01:41:24;;;;;;;;;;;-1.90;99.90;;;;;;5051052;28;19913;-77
2021/12/10 01:43:52;;;;;;;;;;;-2.00;99.90;;;;;;5050619;28;19909;-77
2021/12/10 01:46:26;;;;;;;;;;;-2.10;99.90;;;;;;5051174;28;20365;-76
2021/12/10 01:48:54;;;;;;;;;;;-2.20;99.90;;;;;;5051237;28;19913;-76
2021/12/10 01:51:24;;;;;;;;;;;-2.30;99.90;;;;;;5047351;28;19931;-77
2021/12/10 01:53:51;;;;;;;;;;;-2.20;99.90;;;;;;5050501;28;19909;-77
2021/12/10 01:56:19;;;;;;;;;;;-2.30;99.90;;;;;;5051240;28;19909;-77
2021/12/10 01:58:45;;;;;;;;;;;-2.30;99.90;;;;;;5051089;28;20385;-77
2021/12/10 02:01:19;;;;;;;;;;;-2.40;99.90;;;;;;5050845;28;20333;-77
2021/12/10 02:03:45;;;;;;;;;;;-2.40;99.90;;;;;;5051380;28;19909;-76
2021/12/10 02:06:11;;;;;;;;;;;-2.50;99.90;;;;;;5052794;28;20380;-78
2021/12/10 02:08:37;;;;;;;;;;;-2.50;99.90;;;;;;5049757;28;19909;-77
2021/12/10 02:11:03;;;;;;;;;;;-2.60;99.90;;;;;;5052067;28;19909;-77
2021/12/10 02:13:29;;;;;;;;;;;-2.50;99.90;;;;;;5051186;28;20301;-77
2021/12/10 02:15:55;;;;;;;;;;;-2.50;99.90;;;;;;5050779;28;19909;-76
2021/12/10 02:18:21;;;;;;;;;;;-2.60;99.90;;;;;;5049975;28;19909;-76
2021/12/10 02:21:02;;;;;;;;;;;-2.80;99.90;;;;;;5050571;28;20289;-75
2021/12/10 02:23:55;;;;;;;;;;;-2.80;99.90;;;;;;5047909;28;19916;-76
2021/12/10 02:26:21;;;;;;;;;;;-2.90;99.90;;;;;;5052210;28;19908;-75
2021/12/10 02:28:47;;;;;;;;;;;-2.80;99.90;;;;;;5054803;28;19959;-76
2021/12/10 02:31:13;;;;;;;;;;;-2.90;99.90;;;;;;5050085;28;20314;-76
2021/12/10 02:33:38;;;;;;;;;;;-3.00;99.90;;;;;;5054062;28;20381;-77
2021/12/10 02:36:04;;;;;;;;;;;-2.80;99.90;;;;;;5052977;28;19920;-76
2021/12/10 02:38:30;;;;;;;;;;;-2.60;99.90;;;;;;5054166;28;20008;-77
2021/12/10 02:40:55;;;;;;;;;;;-2.60;99.90;;;;;;5054213;28;20356;-76
2021/12/10 02:43:23;;;;;;;;;;;-2.60;99.90;;;;;;5049075;28;20310;-76
2021/12/10 02:45:54;;;;;;;;;;;-2.70;99.90;;;;;;5054128;28;19947;-77
2021/12/10 02:48:20;;;;;;;;;;;-2.50;99.90;;;;;;5054454;28;19916;-76
2021/12/10 02:50:46;;;;;;;;;;;-2.50;99.90;;;;;;5052122;28;19912;-76
2021/12/10 02:53:14;;;;;;;;;;;-2.40;99.90;;;;;;5052016;28;19909;-76
2021/12/10 02:55:40;;;;;;;;;;;-2.40;99.90;;;;;;5054354;28;19908;-76
2021/12/10 02:58:09;;;;;;;;;;;-2.50;99.90;;;;;;5052916;28;20357;-76
2021/12/10 03:00:38;;;;;;;;;;;-2.80;99.90;;;;;;5054154;28;19916;-76
2021/12/10 03:03:04;;;;;;;;;;;-3.00;99.90;;;;;;5053731;28;19916;-76
2021/12/10 03:05:30;;;;;;;;;;;-3.10;99.90;;;;;;5054033;28;20415;-76
2021/12/10 03:07:55;;;;;;;;;;;-3.10;99.90;;;;;;5054031;28;19956;-76
2021/12/10 03:10:24;;;;;;;;;;;-3.10;99.90;;;;;;5053903;28;19915;-76
2021/12/10 03:12:50;;;;;;;;;;;-3.10;99.90;;;;;;5054026;28;19915;-76
2021/12/10 03:15:17;;;;;;;;;;;-3.20;99.90;;;;;;5052254;28;20007;-75
2021/12/10 03:17:43;;;;;;;;;;;-3.30;99.90;;;;;;5052533;28;20400;-76
2021/12/10 03:20:10;;;;;;;;;;;-3.40;99.90;;;;;;5052356;28;20262;-76
2021/12/10 03:22:37;;;;;;;;;;;-3.30;99.90;;;;;;5050300;28;20353;-75
2021/12/10 03:25:07;;;;;;;;;;;-3.30;99.90;;;;;;5053127;28;19908;-76
2021/12/10 03:27:33;;;;;;;;;;;-3.40;99.90;;;;;;5053634;28;20003;-76
2021/12/10 03:29:59;;;;;;;;;;;-3.50;99.90;;;;;;5053676;28;20366;-76
2021/12/10 03:32:28;;;;;;;;;;;-3.40;99.90;;;;;;5053149;28;19920;-76
2021/12/10 03:34:56;;;;;;;;;;;-3.40;99.90;;;;;;5053078;28;19916;-76
2021/12/10 03:37:22;;;;;;;;;;;-3.30;99.90;;;;;;5053543;28;20434;-77
2021/12/10 03:39:48;;;;;;;;;;;-3.40;99.90;;;;;;5053379;28;19996;-77
2021/12/10 03:42:15;;;;;;;;;;;-3.50;99.90;;;;;;5053362;28;19935;-77
2021/12/10 03:44:40;;;;;;;;;;;-3.50;99.90;;;;;;5053364;28;20384;-77
2021/12/10 03:47:08;;;;;;;;;;;-3.50;99.90;;;;;;5053369;28;19944;-77
2021/12/10 03:49:34;;;;;;;;;;;-3.10;99.90;;;;;;5053139;28;19991;-76
2021/12/10 03:52:00;;;;;;;;;;;-3.00;99.90;;;;;;5049285;28;20262;-76
2021/12/10 03:54:26;;;;;;;;;;;-2.70;99.90;;;;;;5051273;28;19962;-77
2021/12/10 03:56:52;;;;;;;;;;;-2.60;99.90;;;;;;5053229;28;19909;-77
2021/12/10 03:59:19;;;;;;;;;;;-3.00;99.90;;;;;;5052993;28;19916;-77
2021/12/10 04:01:47;;;;;;;;;;;-3.20;99.90;;;;;;5052868;28;19908;-77
2021/12/10 04:04:15;;;;;;;;;;;-3.30;99.90;;;;;;5052871;28;20386;-77
2021/12/10 04:06:41;;;;;;;;;;;-3.40;99.90;;;;;;5054112;28;20014;-77
2021/12/10 04:09:07;;;;;;;;;;;-3.40;99.90;;;;;;5053985;28;20384;-76
2021/12/10 04:11:33;;;;;;;;;;;-3.50;99.90;;;;;;5052892;28;20204;-76
2021/12/10 04:13:58;;;;;;;;;;;-3.50;99.90;;;;;;5052502;28;19908;-76
2021/12/10 04:16:26;;;;;;;;;;;-3.50;99.90;;;;;;5053074;28;19934;-76
2021/12/10 04:18:52;;;;;;;;;;;-3.60;99.90;;;;;;5047751;28;19964;-76
2021/12/10 04:21:18;;;;;;;;;;;-3.70;99.90;;;;;;5047371;28;20411;-77
2021/12/10 04:23:44;;;;;;;;;;;-3.70;99.90;;;;;;5052185;28;20393;-76
2021/12/10 04:26:10;;;;;;;;;;;-3.60;99.90;;;;;;5052736;28;19909;-76
2021/12/10 04:28:36;;;;;;;;;;;-3.60;99.90;;;;;;5051446;28;19923;-77
2021/12/10 04:31:02;;;;;;;;;;;-3.70;99.90;;;;;;5052638;28;19909;-76
2021/12/10 04:33:27;;;;;;;;;;;-3.70;99.90;;;;;;5052014;28;19959;-77
2021/12/10 04:35:54;;;;;;;;;;;-3.80;99.90;;;;;;5052897;28;19909;-76
2021/12/10 04:38:21;;;;;;;;;;;-3.70;99.90;;;;;;5052490;28;19909;-77
2021/12/10 04:40:47;;;;;;;;;;;-3.90;99.90;;;;;;5052556;28;19917;-77
2021/12/10 04:43:18;;;;;;;;;;;-4.00;99.90;;;;;;5051312;28;20031;-76
2021/12/10 04:45:43;;;;;;;;;;;-4.00;99.90;;;;;;5052365;28;20333;-77
2021/12/10 04:48:09;;;;;;;;;;;-4.10;99.90;;;;;;5052396;28;19909;-76
2021/12/10 04:50:34;;;;;;;;;;;-4.20;99.90;;;;;;5052312;28;19963;-77
2021/12/10 04:53:00;;;;;;;;;;;-4.30;99.90;;;;;;5051731;28;19909;-76
2021/12/10 04:55:27;;;;;;;;;;;-4.30;99.90;;;;;;5051342;28;19920;-77
2021/12/10 04:57:53;;;;;;;;;;;-4.10;99.90;;;;;;5052025;28;19959;-76
2021/12/10 05:00:26;;;;;;;;;;;-4.00;99.90;;;;;;5051823;28;19919;-76
2021/12/10 05:02:51;;;;;;;;;;;-4.10;99.90;;;;;;5052080;28;19909;-76
2021/12/10 05:05:17;;;;;;;;;;;-3.90;99.90;;;;;;5051706;28;19909;-77
2021/12/10 05:07:43;;;;;;;;;;;-3.90;99.90;;;;;;5050700;28;19915;-77
2021/12/10 05:10:10;;;;;;;;;;;-3.90;99.90;;;;;;5051939;28;19958;-77
2021/12/10 05:12:37;;;;;;;;;;;-4.10;99.90;;;;;;5051820;28;19913;-76
2021/12/10 05:15:05;;;;;;;;;;;-4.20;99.90;;;;;;5051491;28;19913;-77
2021/12/10 05:17:33;;;;;;;;;;;-4.10;99.90;;;;;;5051789;28;20317;-76
2021/12/10 05:20:00;;;;;;;;;;;-4.20;99.90;;;;;;5051640;28;19920;-76
2021/12/10 05:22:26;;;;;;;;;;;-4.10;99.90;;;;;;5051585;28;20305;-77
2021/12/10 05:24:52;;;;;;;;;;;-4.10;99.90;;;;;;5051249;28;20373;-76
2021/12/10 05:27:18;;;;;;;;;;;-4.20;99.90;;;;;;5051206;28;19923;-76
2021/12/10 05:29:44;;;;;;;;;;;-4.20;99.90;;;;;;5051799;28;19908;-76
2021/12/10 05:32:11;;;;;;;;;;;-4.20;99.90;;;;;;5051670;28;20003;-77
2021/12/10 05:34:40;;;;;;;;;;;-4.20;99.90;;;;;;5051190;28;20374;-76
2021/12/10 05:37:06;;;;;;;;;;;-4.00;99.90;;;;;;5049005;28;19935;-77
2021/12/10 05:39:32;;;;;;;;;;;-4.10;99.90;;;;;;5051150;28;19952;-76
2021/12/10 05:41:57;;;;;;;;;;;-4.00;99.90;;;;;;5051301;28;19954;-76
2021/12/10 05:44:23;;;;;;;;;;;-3.90;99.90;;;;;;5051038;28;19909;-77
2021/12/10 05:46:48;;;;;;;;;;;-3.80;99.90;;;;;;5051699;28;19940;-77
2021/12/10 05:49:14;;;;;;;;;;;-3.70;99.90;;;;;;5050109;28;19948;-76
2021/12/10 05:51:40;;;;;;;;;;;-3.70;99.90;;;;;;5051555;28;19916;-76
2021/12/10 05:54:06;;;;;;;;;;;-3.80;99.90;;;;;;5050846;28;20015;-76
2021/12/10 05:56:31;;;;;;;;;;;-3.90;99.90;;;;;;5051163;28;19909;-76
2021/12/10 05:58:57;;;;;;;;;;;-3.90;99.90;;;;;;5051237;28;19909;-76
2021/12/10 06:01:24;;;;;;;;;;;-3.90;99.90;;;;;;5051036;28;19936;-76
2021/12/10 06:03:53;;;;;;;;;;;-3.90;99.90;;;;;;5050959;28;19999;-76
2021/12/10 06:06:26;;;;;;;;;;;-3.70;99.90;;;;;;5046323;28;20048;-76
2021/12/10 06:08:51;;;;;;;;;;;-3.90;99.90;;;;;;5050741;28;19952;-76
2021/12/10 06:11:17;;;;;;;;;;;-4.00;99.90;;;;;;5050654;28;19998;-76
2021/12/10 06:13:43;;;;;;;;;;;-3.90;99.90;;;;;;5050665;28;20373;-76
2021/12/10 06:16:09;;;;;;;;;;;-4.00;99.90;;;;;;5051074;28;20340;-76
2021/12/10 06:18:35;;;;;;;;;;;-4.00;99.90;;;;;;5051780;28;19915;-76
2021/12/10 06:21:00;;;;;;;;;;;-4.00;99.90;;;;;;5050867;28;19913;-76
2021/12/10 06:23:26;;;;;;;;;;;-3.90;99.90;;;;;;5050567;28;19913;-76
2021/12/10 06:25:51;;;;;;;;;;;-3.90;99.90;;;;;;5050895;28;19909;-76
2021/12/10 06:28:17;;;;;;;;;;;-3.90;99.90;;;;;;5050789;28;19967;-76
2021/12/10 06:30:44;;;;;;;;;;;-3.80;99.90;;;;;;5049472;28;19909;-76
2021/12/10 06:33:12;;;;;;;;;;;-3.70;99.90;;;;;;5049258;28;20350;-76
2021/12/10 06:35:38;;;;;;;;;;;-3.80;99.90;;;;;;5050588;28;19908;-76
2021/12/10 06:38:04;;;;;;;;;;;-3.90;99.90;;;;;;5049137;28;20350;-76
2021/12/10 06:40:30;;;;;;;;;;;-3.90;99.90;;;;;;5050803;28;19970;-76
2021/12/10 06:42:56;;;;;;;;;;;-4.00;99.90;;;;;;5050573;28;20352;-77
2021/12/10 06:45:26;;;;;;;;;;;-3.80;99.90;;;;;;5050676;28;19909;-76
2021/12/10 06:47:55;;;;;;;;;;;-3.90;99.90;;;;;;5050939;28;19909;-76
2021/12/10 06:50:22;;;;;;;;;;;-3.90;99.90;;;;;;5050287;28;20321;-77
2021/12/10 06:52:48;;;;;;;;;;;-4.10;99.90;;;;;;5045812;28;19961;-76
2021/12/10 06:55:14;;;;;;;;;;;-3.80;99.90;;;;;;5050010;28;20373;-77
2021/12/10 06:57:39;;;;;;;;;;;-3.90;99.90;;;;;;5050666;28;19915;-76
2021/12/10 07:00:08;;;;;;;;;;;-4.00;99.90;;;;;;5050466;28;19978;-77
2021/12/10 07:02:33;;;;;;;;;;;-3.90;99.90;;;;;;5044072;28;20332;-76
2021/12/10 07:04:59;;;;;;;;;;;-3.90;99.90;;;;;;5049604;28;19956;-77
2021/12/10 07:07:24;;;;;;;;;;;-3.90;99.90;;;;;;5052843;28;20365;-76
2021/12/10 07:09:50;;;;;;;;;;;-3.80;99.90;;;;;;5051532;28;20246;-76
2021/12/10 07:12:17;;;;;;;;;;;-3.90;99.90;;;;;;5052639;28;19913;-76
2021/12/10 07:14:43;;;;;;;;;;;-4.00;99.90;;;;;;5047262;28;19909;-76
2021/12/10 07:17:09;;;;;;;;;;;-3.80;99.90;;;;;;5048472;28;19913;-76
2021/12/10 07:19:34;;;;;;;;;;;-3.80;99.90;;;;;;5051194;28;19963;-76
2021/12/10 07:22:00;;;;;;;;;;;-3.60;99.90;;;;;;5049578;28;19915;-76
2021/12/10 07:24:25;;;;;;;;;;;-3.70;99.90;;;;;;5051817;28;19927;-77
2021/12/10 07:26:51;;;;;;;;;;;-3.70;99.90;;;;;;5043058;28;19916;-76
2021/12/10 07:29:17;;;;;;;;;;;-3.60;99.90;;;;;;5052449;28;19909;-76
2021/12/10 07:31:43;;;;;;;;;;;-3.50;99.90;;;;;;5052411;28;19930;-76
2021/12/10 07:34:09;;;;;;;;;;;-3.50;99.90;;;;;;5051184;28;19909;-76
2021/12/10 07:36:35;;;;;;;;;;;-3.40;99.90;;;;;;5051373;28;19931;-76
2021/12/10 07:39:03;;;;;;;;;;;-3.40;99.90;;;;;;5042448;28;19909;-76
2021/12/10 07:41:28;;;;;;;;;;;-3.40;99.90;;;;;;5043935;28;20285;-76
2021/12/10 07:43:54;;;;;;;;;;;-3.20;99.90;;;;;;5045352;28;19916;-76
2021/12/10 07:46:19;;;;;;;;;;;-3.10;99.90;;;;;;5049997;28;19909;-77
2021/12/10 07:48:45;;;;;;;;;;;-3.10;99.90;;;;;;5043887;28;19909;-76
2021/12/10 07:51:15;;;;;;;;;;;-2.90;99.90;;;;;;5046215;28;20548;-76
2021/12/10 07:53:41;;;;;;;;;;;-2.30;99.90;;;;;;5049930;28;19919;-76
2021/12/10 07:56:08;;;;;;;;;;;-1.90;99.90;;;;;;5048125;28;19996;-76
2021/12/10 07:58:34;;;;;;;;;;;-1.50;99.90;;;;;;5051393;28;19915;-76
2021/12/10 08:01:04;;;;;;;;;;;-1.10;99.90;;;;;;5046225;28;19924;-76
2021/12/10 08:03:29;;;;;;;;;;;-1.00;99.90;;;;;;5046640;28;20278;-76
2021/12/10 08:05:55;;;;;;;;;;;-1.10;99.90;;;;;;5045784;28;19916;-76
2021/12/10 08:08:20;;;;;;;;;;;-1.30;99.90;;;;;;5051107;28;19964;-76
2021/12/10 08:10:47;;;;;;;;;;;-1.40;99.90;;;;;;5051730;28;19920;-76
2021/12/10 08:13:13;;;;;;;;;;;-1.40;99.90;;;;;;5045301;28;20381;-77
2021/12/10 08:15:39;;;;;;;;;;;-1.40;99.90;;;;;;5042972;28;19916;-76
2021/12/10 08:18:05;;;;;;;;;;;-1.30;99.90;;;;;;5048975;28;19909;-76
2021/12/10 08:20:31;;;;;;;;;;;-1.10;99.90;;;;;;5051823;28;20329;-76
2021/12/10 08:22:57;;;;;;;;;;;-0.90;99.90;;;;;;5047670;28;19909;-77
2021/12/10 08:25:23;;;;;;;;;;;-0.90;99.90;;;;;;5043459;28;19996;-76
2021/12/10 08:27:49;;;;;;;;;;;-0.90;99.90;;;;;;5050047;28;19970;-76
2021/12/10 08:30:16;;;;;;;;;;;-0.90;99.90;;;;;;5052265;28;19913;-76
2021/12/10 08:32:42;;;;;;;;;;;-0.80;99.90;;;;;;5047526;28;19955;-77
2021/12/10 08:35:09;;;;;;;;;;;-0.80;99.90;;;;;;5051404;28;19948;-76
2021/12/10 08:37:35;;;;;;;;;;;-0.80;99.90;;;;;;5046522;28;19948;-76
2021/12/10 08:40:01;;;;;;;;;;;-0.70;99.90;;;;;;5040709;28;20401;-76
2021/12/10 08:42:26;;;;;;;;;;;-0.70;99.90;;;;;;5049915;28;20387;-76
2021/12/10 08:44:52;;;;;;;;;;;-0.60;99.90;;;;;;5050115;28;19916;-76
2021/12/10 08:47:18;;;;;;;;;;;-0.60;99.90;;;;;;5049805;28;20000;-77
2021/12/10 08:49:43;;;;;;;;;;;-0.60;99.90;;;;;;5039046;28;19910;-77
2021/12/10 08:52:09;;;;;;;;;;;-0.60;99.90;;;;;;5045994;28;19909;-76
2021/12/10 08:54:36;;;;;;;;;;;-0.50;99.90;;;;;;5051487;28;19908;-76
2021/12/10 08:57:02;;;;;;;;;;;-0.50;99.90;;;;;;5045521;28;19909;-76
2021/12/10 08:59:28;;;;;;;;;;;-0.50;99.90;;;;;;5050626;28;19908;-77
2021/12/10 09:01:56;;;;;;;;;;;-0.50;99.90;;;;;;5039530;28;19916;-77
2021/12/10 09:04:22;;;;;;;;;;;-0.50;99.90;;;;;;5048177;28;19940;-76
2021/12/10 09:06:50;;;;;;;;;;;-0.40;99.90;;;;;;5046601;28;20000;-76
2021/12/10 09:09:16;;;;;;;;;;;-0.40;99.90;;;;;;5050078;28;19958;-76
2021/12/10 09:11:44;;;;;;;;;;;-0.30;99.90;;;;;;5048879;28;20381;-77
2021/12/10 09:14:10;;;;;;;;;;;-0.20;99.90;;;;;;5049516;28;19909;-78
2021/12/10 09:16:37;;;;;;;;;;;-0.10;99.90;;;;;;5060832;28;19925;-78
2021/12/10 09:19:05;;;;;;;;;;;-0.10;99.90;;;;;;5075560;28;19901;-78
2021/12/10 09:21:32;;;;;;;;;;;0.00;99.90;;;;;;5074139;28;19916;-78
2021/12/10 09:24:03;;;;;;;;;;;0.00;99.90;;;;;;5072049;28;19921;-78
2021/12/10 09:26:30;;;;;;;;;;;0.00;99.90;;;;;;5072922;28;19912;-78
2021/12/10 09:28:57;;;;;;;;;;;0.10;99.90;;;;;;5072692;28;19908;-78
2021/12/10 09:31:24;;;;;;;;;;;0.30;99.90;;;;;;5075246;28;19900;-78
2021/12/10 09:33:54;;;;;;;;;;;0.50;99.90;;;;;;5074659;28;19964;-78
2021/12/10 09:36:20;;;;;;;;;;;0.60;99.90;;;;;;5073018;28;19905;-78
2021/12/10 09:38:46;;;;;;;;;;;0.60;99.90;;;;;;5074489;28;19924;-78
2021/12/10 09:41:12;;;;;;;;;;;0.60;99.90;;;;;;5070990;28;19944;-78
2021/12/10 09:43:38;;;;;;;;;;;0.60;99.90;;;;;;5072900;28;19920;-79
2021/12/10 09:46:04;;;;;;;;;;;0.60;99.90;;;;;;5072136;28;19951;-77
2021/12/10 09:48:30;;;;;;;;;;;0.60;99.90;;;;;;5046665;28;20334;-77
2021/12/10 09:51:01;;;;;;;;;;;0.60;99.90;;;;;;5042582;28;19917;-77
2021/12/10 09:53:27;;;;;;;;;;;0.60;99.90;;;;;;5047586;28;19913;-77
2021/12/10 09:55:53;;;;;;;;;;;0.70;99.90;;;;;;5047175;28;19909;-76
2021/12/10 09:58:19;;;;;;;;;;;0.90;99.90;;;;;;5048806;28;20297;-77
2021/12/10 10:00:52;;;;;;;;;;;1.00;99.90;;;;;;5045352;28;19919;-77
2021/12/10 10:03:20;;;;;;;;;;;1.00;99.90;;;;;;5075244;28;19905;-79
2021/12/10 10:05:46;;;;;;;;;;;1.00;99.90;;;;;;5076794;28;19968;-79
2021/12/10 10:08:14;;;;;;;;;;;1.00;99.90;;;;;;5061690;28;20278;-77
2021/12/10 10:10:40;;;;;;;;;;;0.90;99.90;;;;;;5050632;28;19913;-77
2021/12/10 10:13:07;;;;;;;;;;;1.00;99.90;;;;;;5050994;28;19908;-79
2021/12/10 10:15:33;;;;;;;;;;;0.90;99.90;;;;;;5050905;28;19916;-77
2021/12/10 10:18:00;;;;;;;;;;;0.90;99.90;;;;;;5050536;28;19909;-77
2021/12/10 10:20:27;;;;;;;;;;;1.00;99.90;;;;;;5049040;28;20139;-77
2021/12/10 10:22:52;;;;;;;;;;;1.00;99.90;;;;;;5049498;28;19917;-76
2021/12/10 10:25:20;;;;;;;;;;;1.00;99.90;;;;;;5049365;28;20013;-78
2021/12/10 10:27:46;;;;;;;;;;;1.00;99.90;;;;;;5042523;28;20324;-77
2021/12/10 10:30:38;;;;;;;;;;;1.00;99.90;;;;;;5050676;28;20007;-77
2021/12/10 10:33:05;;;;;;;;;;;1.10;99.90;;;;;;5042674;28;20297;-77
2021/12/10 10:35:34;;;;;;;;;;;1.10;99.90;;;;;;5048109;28;19909;-78
2021/12/10 10:38:00;;;;;;;;;;;1.10;99.90;;;;;;5045009;28;19920;-77
2021/12/10 10:40:29;;;;;;;;;;;1.10;99.90;;;;;;5046501;28;19913;-77
2021/12/10 10:42:55;;;;;;;;;;;1.20;99.90;;;;;;5052228;28;19932;-77
2021/12/10 10:45:24;;;;;;;;;;;1.30;99.90;;;;;;5052360;28;19915;-77
2021/12/10 10:47:50;;;;;;;;;;;1.30;99.90;;;;;;5049899;28;19910;-77
2021/12/10 10:50:23;;;;;;;;;;;1.30;99.90;;;;;;5052047;28;20046;-77
2021/12/10 10:52:51;;;;;;;;;;;1.30;99.90;;;;;;5044010;28;20285;-77
2021/12/10 10:55:19;;;;;;;;;;;1.40;99.90;;;;;;5048935;28;19912;-77
2021/12/10 10:58:17;;;;;;;;;;;1.50;99.90;;;;;;5053210;28;19909;-77
2021/12/10 11:00:51;;;;;;;;;;;1.50;99.90;;;;;;5027133;28;19913;-77
2021/12/10 11:03:18;;;;;;;;;;;1.50;99.90;;;;;;5042947;28;19913;-77
2021/12/10 11:05:49;;;;;;;;;;;1.50;99.90;;;;;;5051135;28;19909;-77
2021/12/10 11:08:24;;;;;;;;;;;1.40;99.90;;;;;;5050884;28;19908;-77
2021/12/10 11:10:51;;;;;;;;;;;1.40;99.90;;;;;;5047857;28;19909;-77
2021/12/10 11:13:21;;;;;;;;;;;1.40;99.90;;;;;;5041388;28;19910;-76
2021/12/10 11:16:01;;;;;;;;;;;1.30;99.90;;;;;;5042836;28;19921;-76
2021/12/10 11:18:27;;;;;;;;;;;1.20;99.90;;;;;;5052784;28;20376;-77
2021/12/10 11:20:54;;;;;;;;;;;1.10;99.90;;;;;;5046615;28;19919;-76
2021/12/10 11:23:25;;;;;;;;;;;1.10;99.90;;;;;;5047081;28;20306;-77
2021/12/10 11:25:53;;;;;;;;;;;1.10;99.90;;;;;;5050302;28;20000;-77
2021/12/10 11:28:20;;;;;;;;;;;1.00;99.90;;;;;;5051591;28;20394;-76
2021/12/10 11:30:47;;;;;;;;;;;0.90;99.90;;;;;;5050507;28;19913;-76
2021/12/10 11:33:24;;;;;;;;;;;0.90;99.90;;;;;;5050410;28;19912;-77
2021/12/10 11:35:51;;;;;;;;;;;0.80;99.90;;;;;;5048630;28;20019;-76
2021/12/10 11:38:24;;;;;;;;;;;0.60;99.90;;;;;;5050161;28;19912;-76
2021/12/10 11:40:58;;;;;;;;;;;0.50;99.90;;;;;;5043427;28;19952;-76
2021/12/10 11:43:53;;;;;;;;;;;0.50;99.90;;;;;;5045199;28;19917;-76
2021/12/10 11:48:57;;;;;;;;;;;0.70;99.90;;;;;;5049161;28;20339;-77
2021/12/10 11:51:43;;;;;;;;;;;0.70;99.90;;;;;;5052044;28;19909;-76
2021/12/10 11:54:19;;;;;;;;;;;0.80;99.90;;;;;;5046987;28;19925;-78
2021/12/10 11:56:47;;;;;;;;;;;0.80;99.90;;;;;;5043692;28;19915;-77
2021/12/10 11:59:20;;;;;;;;;;;0.70;99.90;;;;;;5046900;28;19916;-77
2021/12/10 12:02:06;;;;;;;;;;;0.70;99.90;;;;;;5051127;28;19959;-76
2021/12/10 12:04:43;;;;;;;;;;;0.70;99.90;;;;;;5050671;28;19909;-77
2021/12/10 12:07:24;;;;;;;;;;;0.70;99.90;;;;;;5051089;28;19909;-77
2021/12/10 12:09:54;;;;;;;;;;;0.80;99.90;;;;;;5045951;28;19916;-78
2021/12/10 12:12:22;;;;;;;;;;;0.80;99.90;;;;;;5048245;28;19912;-77
2021/12/10 12:14:53;;;;;;;;;;;0.80;99.90;;;;;;5048301;28;19916;-77
2021/12/10 12:17:27;;;;;;;;;;;0.90;99.90;;;;;;5047632;28;19913;-76
2021/12/10 12:19:53;;;;;;;;;;;0.90;99.90;;;;;;5047999;28;19927;-77
2021/12/10 12:25:09;;;;;;;;;;;1.00;99.90;;;;;;5046236;28;20424;-77
2021/12/10 12:27:35;;;;;;;;;;;0.90;99.90;;;;;;5043751;28;20388;-77
2021/12/10 12:30:06;;;;;;;;;;;1.00;99.90;;;;;;5043141;28;19909;-77
2021/12/10 12:32:34;;;;;;;;;;;1.10;99.90;;;;;;5046812;28;19928;-77
2021/12/10 12:35:17;;;;;;;;;;;1.10;99.90;;;;;;5045291;28;19909;-78
2021/12/10 12:37:42;;;;;;;;;;;1.10;99.90;;;;;;5064866;28;19982;-77
2021/12/10 12:40:09;;;;;;;;;;;1.10;99.90;;;;;;5049371;28;20426;-77
2021/12/10 12:42:37;;;;;;;;;;;1.10;99.90;;;;;;5050578;28;19963;-77
2021/12/10 12:45:08;;;;;;;;;;;1.00;99.90;;;;;;5040765;28;19966;-76
2021/12/10 12:47:38;;;;;;;;;;;0.80;99.90;;;;;;5048438;28;19909;-78
2021/12/10 12:50:07;;;;;;;;;;;0.70;99.90;;;;;;5050464;28;19918;-79
2021/12/10 12:52:49;;;;;;;;;;;0.70;99.90;;;;;;5045480;28;20270;-77
2021/12/10 12:55:22;;;;;;;;;;;0.70;99.90;;;;;;5041742;28;19915;-76
2021/12/10 12:58:08;;;;;;;;;;;0.60;99.90;;;;;;5043048;28;20290;-78
2021/12/10 13:00:37;;;;;;;;;;;0.60;99.90;;;;;;5037391;28;19923;-77
2021/12/10 13:03:05;;;;;;;;;;;0.60;99.90;;;;;;5044937;28;19916;-76
2021/12/10 13:05:43;;;;;;;;;;;0.60;99.90;;;;;;5050087;28;19909;-77
2021/12/10 13:08:13;;;;;;;;;;;0.50;99.90;;;;;;5042706;28;19917;-77
2021/12/10 13:10:46;;;;;;;;;;;0.60;99.90;;;;;;5049706;28;19923;-77
2021/12/10 13:13:22;;;;;;;;;;;0.60;99.90;;;;;;5046383;28;19917;-78
2021/12/10 13:15:50;;;;;;;;;;;0.70;99.90;;;;;;5047097;28;19981;-78
2021/12/10 13:18:16;;;;;;;;;;;0.70;99.90;;;;;;5046947;28;19909;-78
2021/12/10 13:20:45;;;;;;;;;;;0.80;99.90;;;;;;5048880;28;20381;-78
2021/12/10 13:23:13;;;;;;;;;;;0.80;99.90;;;;;;5043932;28;19909;-78
2021/12/10 13:25:39;;;;;;;;;;;0.80;99.90;;;;;;5046657;28;20413;-80
2021/12/10 13:28:05;;;;;;;;;;;0.80;99.90;;;;;;5046214;28;20007;-78
2021/12/10 13:30:51;;;;;;;;;;;0.80;99.90;;;;;;5048945;28;19967;-79
2021/12/10 13:33:19;;;;;;;;;;;0.80;99.90;;;;;;5049316;28;19924;-78
2021/12/10 13:35:45;;;;;;;;;;;0.80;99.90;;;;;;5045741;28;20362;-78
2021/12/10 13:38:10;;;;;;;;;;;0.90;99.90;;;;;;5048897;28;20362;-77
2021/12/10 13:40:37;;;;;;;;;;;0.80;99.90;;;;;;5044886;28;19917;-78
2021/12/10 13:43:04;;;;;;;;;;;0.90;99.90;;;;;;5041745;28;20366;-78
2021/12/10 13:45:33;;;;;;;;;;;0.80;99.90;;;;;;5048473;28;19913;-78
2021/12/10 13:48:11;;;;;;;;;;;0.80;99.90;;;;;;5049843;28;19915;-78
2021/12/10 13:50:39;;;;;;;;;;;0.70;99.90;;;;;;5047981;28;20357;-77
2021/12/10 13:53:13;;;;;;;;;;;0.80;99.90;;;;;;5044333;28;19920;-79
2021/12/10 13:55:39;;;;;;;;;;;0.80;99.90;;;;;;5049602;28;20384;-79
2021/12/10 13:58:18;;;;;;;;;;;0.80;99.90;;;;;;5040311;28;19944;-77
2021/12/10 14:00:48;;;;;;;;;;;1.00;99.90;;;;;;5049428;28;20083;-79
2021/12/10 14:03:14;;;;;;;;;;;1.10;99.90;;;;;;5048794;28;19983;-78
2021/12/10 14:05:41;;;;;;;;;;;1.20;99.90;;;;;;5044470;28;19959;-79
2021/12/10 14:08:12;;;;;;;;;;;1.40;99.90;;;;;;5044258;28;19920;-77
2021/12/10 14:10:40;;;;;;;;;;;1.40;99.90;;;;;;5051050;28;19908;-75
2021/12/10 14:13:08;;;;;;;;;;;1.50;99.90;;;;;;5050548;28;19916;-76
2021/12/10 14:15:46;;;;;;;;;;;1.50;99.90;;;;;;5052190;28;19916;-75
2021/12/10 14:18:20;;;;;;;;;;;1.60;99.90;;;;;;5055611;28;19909;-75
2021/12/10 14:20:46;;;;;;;;;;;1.60;99.90;;;;;;5052724;28;19920;-76
2021/12/10 14:23:20;;;;;;;;;;;1.70;99.90;;;;;;5046830;28;19916;-77
2021/12/10 14:25:50;;;;;;;;;;;1.80;99.90;;;;;;5048730;28;19970;-77
2021/12/10 14:28:39;;;;;;;;;;;1.70;99.90;;;;;;5049207;28;19917;-76
2021/12/10 14:31:09;;;;;;;;;;;1.60;99.90;;;;;;5048893;28;19909;-76
2021/12/10 14:33:37;;;;;;;;;;;1.60;99.90;;;;;;5054554;28;20011;-76
2021/12/10 14:36:03;;;;;;;;;;;1.60;99.90;;;;;;5054593;28;19909;-76
2021/12/10 14:38:40;;;;;;;;;;;1.40;99.90;;;;;;5053430;28;19944;-77
2021/12/10 14:41:08;;;;;;;;;;;1.40;99.90;;;;;;5052995;28;19912;-76